Time;durP1;ratioP1;P1;durP2;ratioP2;P2;SDS_P1;SDS_P2;PMS_P1;PMS_P2;Temp;Humidity;BMP_temperature;BMP_pressure;BME280_temperature;BME280_humidity;BME280_pressure;Samples;Min_cycle;Max_cycle;Signal;HPM_P1;HPM_P2
2023/10/23 00:00:03;;;;;;;0.20;0.10;;;;;;;11.87;70.68;100844.44;15621289;28;20057;-49
2023/10/23 00:07:45;;;;;;;0.00;0.00;;;;;;;11.70;71.03;100857.53;15623496;28;20414;-50
2023/10/23 00:15:23;;;;;;;0.00;0.00;;;;;;;11.62;70.98;100858.63;15632735;28;20038;-50
2023/10/23 00:23:01;;;;;;;0.00;0.00;;;;;;;11.40;71.33;100865.31;15609587;28;20049;-48
2023/10/23 00:30:35;;;;;;;0.10;0.10;;;;;;;11.41;71.55;100864.28;15622089;28;20076;-52
2023/10/23 00:38:10;;;;;;;0.00;0.00;;;;;;;11.43;71.54;100864.91;15604161;28;20080;-51
2023/10/23 00:45:50;;;;;;;0.00;0.00;;;;;;;11.54;72.35;100868.78;15604712;28;20038;-49
2023/10/23 00:53:28;;;;;;;0.00;0.00;;;;;;;11.50;72.23;100866.50;15604227;28;20038;-49
2023/10/23 01:01:03;;;;;;;0.00;0.00;;;;;;;11.41;71.66;100859.72;15621181;28;20050;-48
2023/10/23 01:08:38;;;;;;;0.00;0.00;;;;;;;11.20;71.81;100868.06;15602956;28;20045;-49
2023/10/23 01:16:11;;;;;;;0.00;0.00;;;;;;;11.17;71.69;100872.00;15615622;28;20032;-51
2023/10/23 01:23:48;;;;;;;0.00;0.00;;;;;;;11.06;71.58;100880.72;15619082;28;20076;-47
2023/10/23 01:31:23;;;;;;;0.22;0.22;;;;;;;10.97;71.94;100887.34;15601091;28;20060;-48
2023/10/23 01:38:56;;;;;;;0.10;0.10;;;;;;;10.77;72.42;100895.44;15600549;28;20041;-49
2023/10/23 01:46:31;;;;;;;0.00;0.00;;;;;;;10.83;72.45;100893.78;15600824;28;20046;-48
2023/10/23 01:54:04;;;;;;;0.13;0.13;;;;;;;10.83;72.54;100893.78;15617495;28;20438;-50
2023/10/23 02:01:39;;;;;;;0.00;0.00;;;;;;;10.77;73.17;100890.06;15599516;28;20456;-49
2023/10/23 02:09:13;;;;;;;0.00;0.00;;;;;;;11.00;73.08;100892.28;15599320;28;20127;-49
2023/10/23 02:16:47;;;;;;;1.25;0.45;;;;;;;11.19;73.38;100887.91;15637908;28;20143;-46
2023/10/23 02:24:20;;;;;;;0.00;0.00;;;;;;;11.15;73.53;100897.44;15606144;28;20072;-52
2023/10/23 02:31:55;;;;;;;;;;;;;;;11.17;73.49;100896.19;15598327;28;20065;-47
2023/10/23 02:39:28;;;;;;;0.85;0.45;;;;;;;11.01;74.29;100914.63;15614579;28;19925;-48
2023/10/23 02:47:03;;;;;;;0.00;0.00;;;;;;;11.01;73.91;100914.63;15597550;28;20528;-49
2023/10/23 02:54:39;;;;;;;4.07;0.55;;;;;;;10.86;73.79;100923.69;15613445;28;20065;-48
2023/10/23 03:02:14;;;;;;;0.00;0.00;;;;;;;10.68;74.20;100934.25;15596686;28;20095;-50
2023/10/23 03:09:48;;;;;;;0.00;0.00;;;;;;;10.54;74.05;100940.63;15596044;28;20057;-50
2023/10/23 03:17:23;;;;;;;0.00;0.00;;;;;;;10.55;73.40;100943.13;15627497;28;20115;-51
2023/10/23 03:24:57;;;;;;;0.00;0.00;;;;;;;10.38;72.75;100944.53;15596667;28;20123;-49
2023/10/23 03:32:31;;;;;;;0.00;0.00;;;;;;;10.30;72.91;100947.41;15585301;28;20356;-48
2023/10/23 03:40:06;;;;;;;0.00;0.00;;;;;;;10.20;73.21;100943.22;15625790;28;20046;-49
2023/10/23 03:47:40;;;;;;;0.00;0.00;;;;;;;10.09;73.14;100948.38;15607047;28;20065;-51
2023/10/23 03:55:14;;;;;;;0.00;0.00;;;;;;;9.92;72.77;100948.69;15606809;28;20042;-48
2023/10/23 04:02:48;;;;;;;0.00;0.00;;;;;;;9.83;73.02;100955.25;15624229;28;20125;-48
2023/10/23 04:10:21;;;;;;;0.40;0.22;;;;;;;9.70;72.96;100968.63;15623802;28;20036;-49
2023/10/23 04:17:57;;;;;;;0.00;0.00;;;;;;;9.67;73.09;100977.88;15637561;28;20073;-53
2023/10/23 04:25:30;;;;;;;0.00;0.00;;;;;;;9.52;72.76;100977.19;15622977;28;20092;-52
2023/10/23 04:33:05;;;;;;;0.00;0.00;;;;;;;9.48;72.35;100989.31;15622548;28;20041;-46
2023/10/23 04:40:38;;;;;;;0.00;0.00;;;;;;;9.43;72.60;100995.28;15681843;22;20056;-48
2023/10/23 04:48:13;;;;;;;0.00;0.00;;;;;;;9.23;72.63;100996.16;15682867;28;20053;-48
2023/10/23 04:55:46;;;;;;;0.00;0.00;;;;;;;9.37;73.34;100992.53;15658893;28;20045;-46
2023/10/23 05:03:21;;;;;;;0.00;0.00;;;;;;;9.16;73.26;101001.47;15647749;28;20383;-47
2023/10/23 05:10:54;;;;;;;0.20;0.20;;;;;;;8.76;73.15;100962.81;15644720;28;20072;-48
2023/10/23 05:18:43;;;;;;;0.00;0.00;;;;;;;8.96;73.01;101014.69;15652441;28;20139;-47
2023/10/23 05:26:16;;;;;;;0.00;0.00;;;;;;;8.98;73.59;101015.31;15648115;28;20451;-46
2023/10/23 05:33:51;;;;;;;0.00;0.00;;;;;;;9.02;73.14;101023.81;15681003;28;20080;-48
2023/10/23 05:41:25;;;;;;;0.30;0.22;;;;;;;9.10;73.81;101021.81;15687702;28;20049;-47
2023/10/23 05:48:59;;;;;;;0.00;0.00;;;;;;;9.18;74.27;101029.69;15712069;28;20394;-47
2023/10/23 05:56:32;;;;;;;0.03;0.03;;;;;;;9.31;74.43;101026.28;15638357;28;20051;-47
2023/10/23 06:04:07;;;;;;;0.00;0.00;;;;;;;9.47;74.77;101037.75;15654774;28;20036;-49
2023/10/23 06:11:41;;;;;;;0.10;0.10;;;;;;;9.55;74.25;101042.94;15669957;28;20123;-46
2023/10/23 06:19:18;;;;;;;0.30;0.30;;;;;;;9.65;73.83;101054.13;15673626;28;20053;-47
2023/10/23 06:26:51;;;;;;;0.00;0.00;;;;;;;9.69;74.39;101061.59;15644803;28;20125;-46
2023/10/23 06:34:26;;;;;;;0.10;0.10;;;;;;;9.92;74.42;101073.91;15675970;28;20073;-48
2023/10/23 06:41:59;;;;;;;0.10;0.10;;;;;;;9.97;74.87;101074.13;15668632;28;20047;-48
2023/10/23 06:49:37;;;;;;;1.35;0.65;;;;;;;10.07;75.38;101071.09;15643887;28;20045;-46
2023/10/23 06:57:10;;;;;;;0.08;0.08;;;;;;;10.31;75.14;101080.53;15644079;28;20045;-50
2023/10/23 07:04:44;;;;;;;;;;;;;;;10.40;76.06;101079.34;15654701;28;20114;-50
2023/10/23 07:12:18;;;;;;;0.00;0.00;;;;;;;10.14;78.00;101069.28;15627001;28;20012;-49
2023/10/23 07:19:55;;;;;;;0.00;0.00;;;;;;;10.28;78.60;101073.72;15637670;28;20087;-49
2023/10/23 07:27:29;;;;;;;0.00;0.00;;;;;;;10.26;80.02;101080.28;15646274;28;20104;-49
2023/10/23 07:35:04;;;;;;;;;;;;;;;10.77;79.53;101093.25;15646947;28;20457;-48
2023/10/23 07:42:37;;;;;;;0.17;0.10;;;;;;;10.98;78.50;101103.88;15636645;28;19957;-48
2023/10/23 07:50:12;;;;;;;0.00;0.00;;;;;;;10.96;79.59;101101.38;15644688;28;20045;-48
2023/10/23 07:57:47;;;;;;;0.00;0.00;;;;;;;11.58;77.85;101106.59;15644045;28;20049;-49
2023/10/23 08:05:22;;;;;;;1.55;1.35;;;;;;;11.37;78.55;101118.38;15640003;28;20044;-46
2023/10/23 08:12:55;;;;;;;0.08;0.08;;;;;;;10.70;81.20;101126.31;15642349;28;20472;-47
2023/10/23 08:20:35;;;;;;;0.05;0.05;;;;;;;11.70;78.57;101124.59;15652192;28;20100;-47
2023/10/23 08:28:09;;;;;;;0.30;0.30;;;;;;;11.91;78.14;101123.53;15664022;28;20112;-51
2023/10/23 08:35:46;;;;;;;0.00;0.00;;;;;;;11.98;78.44;101131.59;15660537;28;20053;-47
2023/10/23 08:43:20;;;;;;;0.00;0.00;;;;;;;11.98;78.56;101132.44;15642300;28;20048;-49
2023/10/23 08:50:57;;;;;;;2.83;1.45;;;;;;;12.30;77.79;101118.25;15658802;28;20121;-49
2023/10/23 08:58:34;;;;;;;0.10;0.10;;;;;;;12.50;76.62;101125.25;15665146;28;20049;-52
2023/10/23 09:06:09;;;;;;;0.10;0.10;;;;;;;12.72;76.69;101114.97;15663330;28;20124;-49
2023/10/23 09:13:43;;;;;;;28.33;1.35;;;;;;;12.93;75.61;101119.22;15649985;28;20110;-48
2023/10/23 09:21:19;;;;;;;0.00;0.00;;;;;;;13.46;73.70;101123.44;15645738;28;20049;-50
2023/10/23 09:28:57;;;;;;;2.53;0.40;;;;;;;13.98;72.96;101118.59;15659973;28;20052;-53
2023/10/23 09:36:33;;;;;;;;;;;;;;;14.57;71.40;101121.72;15656363;28;20044;-48
2023/10/23 09:44:08;;;;;;;0.10;0.10;;;;;;;15.63;66.05;101107.44;15640668;28;20324;-53
2023/10/23 09:51:49;;;;;;;0.55;0.35;;;;;;;15.72;65.38;101106.06;15649270;28;20087;-47
2023/10/23 09:59:27;;;;;;;0.57;0.10;;;;;;;15.20;66.73;101110.41;15647771;28;20502;-49
2023/10/23 10:07:09;;;;;;;0.03;0.03;;;;;;;16.13;65.69;101100.72;15671232;28;20044;-52
2023/10/23 10:14:44;;;;;;;0.00;0.00;;;;;;;16.88;62.04;101094.38;15669713;28;20569;-51
2023/10/23 10:22:24;;;;;;;0.20;0.20;;;;;;;16.85;62.45;101089.47;15650313;28;20090;-49
2023/10/23 10:30:00;;;;;;;0.30;0.30;;;;;;;15.65;65.23;101091.81;15649899;28;20056;-50
2023/10/23 10:37:38;;;;;;;0.28;0.15;;;;;;;15.38;65.55;101096.00;15680783;22;20444;-49
2023/10/23 10:45:16;;;;;;;0.00;0.00;;;;;;;16.17;63.04;101085.63;15702449;28;20048;-50
2023/10/23 10:52:52;;;;;;;0.00;0.00;;;;;;;17.89;58.77;101078.94;15634466;28;20045;-54
2023/10/23 11:00:29;;;;;;;0.00;0.00;;;;;;;16.87;59.55;101068.34;15635187;28;20095;-50
2023/10/23 11:08:04;;;;;;;1.52;0.70;;;;;;;17.52;58.91;101055.03;15643042;28;20068;-48
2023/10/23 11:15:39;;;;;;;0.47;0.45;;;;;;;18.38;57.48;101056.47;15638530;28;20041;-52
2023/10/23 11:23:21;;;;;;;0.00;0.00;;;;;;;17.17;58.98;101049.88;15629683;28;20042;-51
2023/10/23 11:30:57;;;;;;;0.20;0.20;;;;;;;17.01;59.09;101048.78;15637447;28;20073;-50
2023/10/23 11:38:37;;;;;;;1.85;0.57;;;;;;;15.92;63.12;101053.44;15632955;28;20151;-48
2023/10/23 11:46:10;;;;;;;0.00;0.00;;;;;;;16.55;61.49;101052.53;15648348;28;20135;-48
2023/10/23 11:53:46;;;;;;;0.40;0.32;;;;;;;16.76;61.82;101045.66;15641014;28;20052;-48
2023/10/23 12:01:20;;;;;;;1.27;0.82;;;;;;;16.51;62.64;101052.22;15644526;28;20045;-48
2023/10/23 12:08:54;;;;;;;;;;;;;;;16.91;60.15;101045.91;15645874;28;20125;-52
2023/10/23 12:16:27;;;;;;;0.00;0.00;;;;;;;19.22;51.73;101037.75;15630718;28;19956;-49
2023/10/23 12:24:05;;;;;;;0.40;0.40;;;;;;;18.38;54.63;101040.19;15639170;28;20041;-49
2023/10/23 12:31:39;;;;;;;0.80;0.25;;;;;;;17.79;57.75;101036.19;15663478;28;20048;-49
2023/10/23 12:39:13;;;;;;;0.00;0.00;;;;;;;17.05;57.14;101027.44;15645183;28;20048;-52
2023/10/23 12:46:46;;;;;;;0.00;0.00;;;;;;;16.79;60.29;101013.47;15647362;28;20037;-50
2023/10/23 12:54:21;;;;;;;0.13;0.08;;;;;;;17.48;56.29;101020.50;15645439;28;20497;-50
2023/10/23 13:01:56;;;;;;;0.20;0.20;;;;;;;18.07;55.48;101015.34;15643590;28;20041;-54
2023/10/23 13:09:30;;;;;;;0.13;0.13;;;;;;;18.52;53.95;101008.78;15643941;28;20502;-53
2023/10/23 13:17:03;;;;;;;0.10;0.10;;;;;;;18.00;54.82;101004.69;15644581;28;20089;-53
2023/10/23 13:24:40;;;;;;;0.00;0.00;;;;;;;18.45;55.47;101000.00;15638729;28;20527;-49
2023/10/23 13:32:13;;;;;;;0.00;0.00;;;;;;;17.69;54.15;101000.72;15645624;28;20569;-52
2023/10/23 13:39:51;;;;;;;0.05;0.05;;;;;;;17.50;57.36;100999.38;15639819;28;20165;-48
2023/10/23 13:47:24;;;;;;;0.10;0.10;;;;;;;17.48;58.30;100999.59;15640485;28;20554;-50
2023/10/23 13:54:59;;;;;;;0.08;0.08;;;;;;;17.60;59.17;100989.47;15640839;28;20052;-48
2023/10/23 14:02:34;;;;;;;0.35;0.20;;;;;;;17.22;59.36;100959.63;15640719;28;20094;-50
2023/10/23 14:10:09;;;;;;;0.00;0.00;;;;;;;17.40;60.28;100975.63;15639146;28;20041;-50
2023/10/23 14:17:43;;;;;;;0.05;0.05;;;;;;;17.25;60.78;100972.66;15624437;28;20406;-49
2023/10/23 14:25:17;;;;;;;0.13;0.03;;;;;;;17.07;60.64;100971.88;15639730;28;20104;-48
2023/10/23 14:32:50;;;;;;;0.00;0.00;;;;;;;17.23;61.20;100967.50;15639105;28;20041;-50
2023/10/23 14:40:25;;;;;;;0.00;0.00;;;;;;;17.06;61.81;100966.69;15635311;28;20469;-49
2023/10/23 14:47:59;;;;;;;0.00;0.00;;;;;;;16.73;62.85;100957.50;15635532;28;20132;-48
2023/10/23 14:55:33;;;;;;;0.77;0.43;;;;;;;16.42;63.39;100950.72;15637423;28;20545;-48
2023/10/23 15:03:06;;;;;;;0.00;0.00;;;;;;;16.21;63.88;100943.25;15644726;28;20090;-48
2023/10/23 15:10:42;;;;;;;0.10;0.10;;;;;;;15.94;64.95;100941.13;15635352;28;20478;-50
2023/10/23 15:18:16;;;;;;;0.22;0.22;;;;;;;15.74;65.17;100929.91;15636574;28;20041;-49
2023/10/23 15:25:57;;;;;;;0.00;0.00;;;;;;;15.56;65.63;100936.25;15643183;28;20041;-50
2023/10/23 15:33:31;;;;;;;0.57;0.57;;;;;;;15.40;65.29;100931.59;15657281;28;20378;-50
2023/10/23 15:41:08;;;;;;;2.45;0.95;;;;;;;15.10;66.67;100927.13;15658831;28;20049;-50
2023/10/23 15:48:41;;;;;;;0.00;0.00;;;;;;;14.85;67.50;100926.56;15668428;28;20048;-47
2023/10/23 15:56:16;;;;;;;0.20;0.20;;;;;;;14.59;67.37;100923.22;15666849;28;20460;-51
2023/10/23 16:03:51;;;;;;;0.17;0.17;;;;;;;14.39;68.04;100920.78;15649160;28;20038;-48
2023/10/23 16:11:28;;;;;;;0.00;0.00;;;;;;;14.15;68.52;100922.59;15657144;28;20073;-49
2023/10/23 16:19:04;;;;;;;0.90;0.85;;;;;;;14.03;68.90;100919.03;15650158;28;20505;-51
2023/10/23 16:26:39;;;;;;;0.17;0.17;;;;;;;13.77;69.19;100926.44;15661237;28;20045;-48
2023/10/23 16:34:12;;;;;;;0.88;0.65;;;;;;;13.57;69.94;100919.63;15668151;28;20041;-48
2023/10/23 16:41:49;;;;;;;0.00;0.00;;;;;;;13.47;69.82;100912.06;15649449;28;20111;-54
2023/10/23 16:49:22;;;;;;;0.65;0.35;;;;;;;13.26;70.26;100903.38;15637413;28;20099;-51
2023/10/23 16:56:57;;;;;;;0.55;0.55;;;;;;;13.18;70.44;100900.13;15619288;28;20418;-52
2023/10/23 17:04:31;;;;;;;0.43;0.43;;;;;;;12.89;70.06;100894.38;15620312;28;20071;-49
2023/10/23 17:12:06;;;;;;;0.00;0.00;;;;;;;12.89;70.41;100890.88;15620303;28;20049;-48
2023/10/23 17:19:40;;;;;;;1.15;0.60;;;;;;;12.63;70.87;100897.31;15638153;28;20132;-47
2023/10/23 17:27:14;;;;;;;2.25;0.98;;;;;;;12.56;70.96;100891.16;15660560;28;20494;-50
2023/10/23 17:34:47;;;;;;;0.75;0.75;;;;;;;12.47;70.48;100886.03;15630742;28;20126;-47
2023/10/23 17:42:22;;;;;;;0.50;0.50;;;;;;;12.31;70.84;100888.44;15653245;28;20048;-46
2023/10/23 17:49:55;;;;;;;1.42;0.90;;;;;;;12.12;70.92;100882.97;15653786;28;20143;-47
2023/10/23 17:57:30;;;;;;;0.43;0.43;;;;;;;12.06;70.97;100875.78;15646332;28;20045;-49
2023/10/23 18:05:03;;;;;;;0.25;0.25;;;;;;;11.94;70.83;100874.81;15638474;28;20032;-45
2023/10/23 18:12:38;;;;;;;0.10;0.10;;;;;;;11.87;71.23;100876.72;15658982;28;20155;-48
2023/10/23 18:20:12;;;;;;;6.03;2.55;;;;;;;11.75;71.33;100873.88;15646799;28;20497;-51
2023/10/23 18:27:47;;;;;;;0.65;0.45;;;;;;;11.68;71.93;100867.69;15660994;28;20122;-49
2023/10/23 18:35:20;;;;;;;6.22;1.95;;;;;;;11.64;71.68;100866.44;15648561;28;20041;-49
2023/10/23 18:42:59;;;;;;;13.43;1.58;;;;;;;11.53;71.74;100859.06;15644125;28;20048;-48
2023/10/23 18:50:32;;;;;;;1.05;0.63;;;;;;;11.47;71.54;100850.81;15638375;28;20119;-48
2023/10/23 18:58:07;;;;;;;0.55;0.55;;;;;;;11.49;71.81;100843.34;15647625;28;20041;-45
2023/10/23 19:05:40;;;;;;;1.48;1.02;;;;;;;11.45;72.30;100854.75;15645827;28;20127;-48
2023/10/23 19:13:15;;;;;;;0.03;0.03;;;;;;;11.50;71.70;100847.69;15641124;28;20032;-46
2023/10/23 19:20:48;;;;;;;0.65;0.65;;;;;;;11.44;71.81;100862.00;15623682;28;20041;-47
2023/10/23 19:28:22;;;;;;;1.13;1.05;;;;;;;11.29;71.63;100866.81;15635534;28;20047;-48
2023/10/23 19:35:56;;;;;;;0.93;0.85;;;;;;;11.10;72.10;100856.97;15660973;28;20043;-48
2023/10/23 19:43:33;;;;;;;;;;;;;;;11.18;72.21;100867.44;15653501;28;20041;-47
2023/10/23 19:51:08;;;;;;;0.70;0.52;;;;;;;11.15;72.99;100865.19;15662939;28;19920;-48
2023/10/23 19:58:42;;;;;;;1.70;1.23;;;;;;;11.21;72.48;100859.78;15619579;28;20045;-47
2023/10/23 20:06:16;;;;;;;1.02;0.55;;;;;;;11.15;73.20;100859.84;15654082;28;20045;-47
2023/10/23 20:13:52;;;;;;;0.40;0.40;;;;;;;10.68;76.26;100859.09;15653469;28;20463;-52
2023/10/23 20:21:24;;;;;;;0.88;0.85;;;;;;;10.32;78.08;100846.09;15650812;28;20048;-48
2023/10/23 20:29:00;;;;;;;0.10;0.10;;;;;;;10.24;78.51;100841.75;15646654;28;20468;-48
2023/10/23 20:36:37;;;;;;;1.85;1.10;;;;;;;10.37;78.37;100843.59;15658858;28;20045;-50
2023/10/23 20:44:12;;;;;;;5.63;2.53;;;;;;;10.19;78.21;100815.50;15645183;28;20100;-52
2023/10/23 20:51:45;;;;;;;1.67;0.45;;;;;;;10.73;76.59;100811.78;15652574;28;20300;-48
2023/10/23 20:59:20;;;;;;;0.08;0.08;;;;;;;10.29;78.89;100799.03;15653332;28;20044;-48
2023/10/23 21:06:55;;;;;;;1.45;1.10;;;;;;;10.21;78.96;100778.56;15644001;28;20041;-47
2023/10/23 21:14:32;;;;;;;0.28;0.28;;;;;;;9.59;82.08;100763.66;15654913;28;20041;-54
2023/10/23 21:22:06;;;;;;;0.00;0.00;;;;;;;9.89;80.67;100763.31;15654813;28;20442;-49
2023/10/23 21:29:41;;;;;;;;;;;;;;;9.65;82.02;100744.09;15651941;28;20308;-48
2023/10/23 21:37:14;;;;;;;0.45;0.45;;;;;;;9.86;82.02;100747.63;15641015;28;19921;-50
2023/10/23 21:44:48;;;;;;;0.00;0.00;;;;;;;9.87;81.86;100743.91;15652327;28;20041;-47
2023/10/23 21:52:22;;;;;;;1.10;0.77;;;;;;;9.97;81.00;100731.72;15662243;28;20083;-48
2023/10/23 21:59:57;;;;;;;0.22;0.22;;;;;;;9.54;82.95;100733.16;15656371;28;20513;-49
2023/10/23 22:07:30;;;;;;;0.85;0.57;;;;;;;9.62;83.04;100731.09;15651865;28;20154;-49
2023/10/23 22:15:07;;;;;;;0.03;0.03;;;;;;;9.48;83.61;100733.97;15637701;28;20092;-46
2023/10/23 22:22:41;;;;;;;0.65;0.43;;;;;;;9.74;82.62;100728.63;15644225;28;20090;-47
2023/10/23 22:30:15;;;;;;;0.10;0.10;;;;;;;9.52;83.54;100717.28;15644375;28;20076;-50
2023/10/23 22:37:48;;;;;;;0.70;0.70;;;;;;;10.13;81.70;100714.41;15681292;22;20062;-50
2023/10/23 22:45:23;;;;;;;0.15;0.15;;;;;;;10.12;81.00;100712.78;15702846;28;20043;-47
2023/10/23 22:52:56;;;;;;;1.48;0.82;;;;;;;10.26;80.46;100707.38;15712355;28;20401;-45
2023/10/23 23:00:31;;;;;;;0.25;0.25;;;;;;;10.08;81.73;100711.53;15700739;28;20056;-47
2023/10/23 23:08:05;;;;;;;0.43;0.43;;;;;;;10.19;81.01;100715.44;15704971;28;20044;-45
2023/10/23 23:15:44;;;;;;;0.40;0.40;;;;;;;10.31;79.84;100700.38;15687471;28;20557;-46
2023/10/23 23:23:17;;;;;;;0.30;0.30;;;;;;;10.20;80.42;100704.47;15677693;28;20127;-48
2023/10/23 23:30:52;;;;;;;0.10;0.10;;;;;;;10.37;79.61;100688.81;15695103;28;20477;-51
2023/10/23 23:38:27;;;;;;;0.43;0.43;;;;;;;10.06;80.99;100681.41;15694331;28;20079;-48
2023/10/23 23:46:03;;;;;;;1.00;0.95;;;;;;;10.17;80.37;100675.41;15692214;28;20045;-50
2023/10/23 23:53:36;;;;;;;1.13;1.08;;;;;;;10.02;81.13;100661.38;15707927;28;20170;-51
